sensor_id;sensor_type;location;lat;lon;timestamp;pressure;altitude;pressure_sealevel;temperature;humidity
40918;BME280;26644;50.248;19.032;2022-11-04T00:00:08;97609.03;;;9.04;69.53
40918;BME280;26644;50.248;19.032;2022-11-04T00:03:11;97603.31;;;9.00;69.69
40918;BME280;26644;50.248;19.032;2022-11-04T00:06:13;97597.59;;;8.97;69.71
40918;BME280;26644;50.248;19.032;2022-11-04T00:09:16;97599.53;;;8.96;70.03
40918;BME280;26644;50.248;19.032;2022-11-04T00:12:18;97602.53;;;8.94;69.88
40918;BME280;26644;50.248;19.032;2022-11-04T00:15:25;97596.22;;;8.94;69.87
40918;BME280;26644;50.248;19.032;2022-11-04T00:19:00;97595.69;;;8.92;70.31
40918;BME280;26644;50.248;19.032;2022-11-04T00:22:02;97572.81;;;8.83;69.94
40918;BME280;26644;50.248;19.032;2022-11-04T00:25:21;97577.97;;;8.84;70.54
40918;BME280;26644;50.248;19.032;2022-11-04T00:28:41;97586.69;;;8.86;70.58
40918;BME280;26644;50.248;19.032;2022-11-04T00:31:43;97581.00;;;8.83;70.70
40918;BME280;26644;50.248;19.032;2022-11-04T00:35:04;97577.69;;;8.86;70.68
40918;BME280;26644;50.248;19.032;2022-11-04T00:38:06;97554.03;;;8.71;70.74
40918;BME280;26644;50.248;19.032;2022-11-04T00:41:08;97562.41;;;8.79;71.02
40918;BME280;26644;50.248;19.032;2022-11-04T00:44:24;97559.38;;;8.81;70.92
40918;BME280;26644;50.248;19.032;2022-11-04T00:47:25;97556.13;;;8.79;70.96
40918;BME280;26644;50.248;19.032;2022-11-04T00:50:29;97552.28;;;8.80;71.17
40918;BME280;26644;50.248;19.032;2022-11-04T00:53:30;97551.16;;;8.81;70.92
40918;BME280;26644;50.248;19.032;2022-11-04T00:56:32;97547.34;;;8.82;70.94
40918;BME280;26644;50.248;19.032;2022-11-04T00:59:37;97541.56;;;8.84;71.07
40918;BME280;26644;50.248;19.032;2022-11-04T01:02:40;97510.59;;;8.64;71.03
40918;BME280;26644;50.248;19.032;2022-11-04T01:05:43;97542.63;;;8.88;71.03
40918;BME280;26644;50.248;19.032;2022-11-04T01:08:45;97542.84;;;8.91;70.92
40918;BME280;26644;50.248;19.032;2022-11-04T01:11:47;97536.03;;;8.89;71.17
40918;BME280;26644;50.248;19.032;2022-11-04T01:14:49;97534.63;;;8.97;71.20
40918;BME280;26644;50.248;19.032;2022-11-04T01:17:51;97479.16;;;8.61;70.84
40918;BME280;26644;50.248;19.032;2022-11-04T01:20:58;97528.50;;;9.05;71.04
40918;BME280;26644;50.248;19.032;2022-11-04T01:24:01;97525.72;;;9.10;71.05
40918;BME280;26644;50.248;19.032;2022-11-04T01:27:03;97514.81;;;9.05;70.91
40918;BME280;26644;50.248;19.032;2022-11-04T01:30:06;97522.63;;;9.17;70.75
40918;BME280;26644;50.248;19.032;2022-11-04T01:33:08;97520.13;;;9.20;70.78
40918;BME280;26644;50.248;19.032;2022-11-04T01:36:11;97506.97;;;9.22;70.51
40918;BME280;26644;50.248;19.032;2022-11-04T01:39:13;97503.63;;;9.25;70.72
40918;BME280;26644;50.248;19.032;2022-11-04T01:42:19;97498.13;;;9.25;70.63
40918;BME280;26644;50.248;19.032;2022-11-04T01:45:22;97502.22;;;9.28;70.54
40918;BME280;26644;50.248;19.032;2022-11-04T01:48:26;97495.09;;;9.27;70.65
40918;BME280;26644;50.248;19.032;2022-11-04T01:51:35;97484.94;;;9.27;70.24
40918;BME280;26644;50.248;19.032;2022-11-04T01:54:39;97481.94;;;9.29;70.61
40918;BME280;26644;50.248;19.032;2022-11-04T01:57:46;97474.81;;;9.28;70.71
40918;BME280;26644;50.248;19.032;2022-11-04T02:00:49;97470.16;;;9.28;70.59
40918;BME280;26644;50.248;19.032;2022-11-04T02:03:53;97467.41;;;9.28;70.52
40918;BME280;26644;50.248;19.032;2022-11-04T02:06:59;97466.31;;;9.30;70.14
40918;BME280;26644;50.248;19.032;2022-11-04T02:10:03;97460.31;;;9.27;70.09
40918;BME280;26644;50.248;19.032;2022-11-04T02:13:05;97437.41;;;9.18;69.89
40918;BME280;26644;50.248;19.032;2022-11-04T02:16:10;97430.69;;;9.10;70.25
40918;BME280;26644;50.248;19.032;2022-11-04T02:19:35;97448.31;;;9.23;69.88
40918;BME280;26644;50.248;19.032;2022-11-04T02:23:13;97433.88;;;9.18;70.13
40918;BME280;26644;50.248;19.032;2022-11-04T02:26:36;97432.25;;;9.17;69.90
40918;BME280;26644;50.248;19.032;2022-11-04T02:29:51;97441.88;;;9.14;70.20
40918;BME280;26644;50.248;19.032;2022-11-04T02:33:13;97416.25;;;9.05;70.35
40918;BME280;26644;50.248;19.032;2022-11-04T02:36:24;97437.41;;;9.18;70.00
40918;BME280;26644;50.248;19.032;2022-11-04T02:39:35;97401.16;;;9.07;70.19
40918;BME280;26644;50.248;19.032;2022-11-04T02:42:44;97412.50;;;9.20;70.24
40918;BME280;26644;50.248;19.032;2022-11-04T02:45:53;97411.91;;;9.23;69.93
40918;BME280;26644;50.248;19.032;2022-11-04T02:49:05;97411.38;;;9.21;70.11
40918;BME280;26644;50.248;19.032;2022-11-04T02:52:11;97411.97;;;9.18;69.94
40918;BME280;26644;50.248;19.032;2022-11-04T02:55:19;97418.25;;;9.18;70.25
40918;BME280;26644;50.248;19.032;2022-11-04T02:58:28;97416.03;;;9.20;70.29
40918;BME280;26644;50.248;19.032;2022-11-04T03:01:34;97405.09;;;9.20;69.99
40918;BME280;26644;50.248;19.032;2022-11-04T03:04:40;97397.47;;;9.17;69.80
40918;BME280;26644;50.248;19.032;2022-11-04T03:07:45;97406.78;;;9.16;70.02
40918;BME280;26644;50.248;19.032;2022-11-04T03:10:51;97409.31;;;9.13;70.12
40918;BME280;26644;50.248;19.032;2022-11-04T03:13:56;97412.03;;;9.13;69.98
40918;BME280;26644;50.248;19.032;2022-11-04T03:17:03;97407.66;;;9.11;69.90
40918;BME280;26644;50.248;19.032;2022-11-04T03:20:11;97403.69;;;9.04;69.92
40918;BME280;26644;50.248;19.032;2022-11-04T03:23:15;97393.31;;;9.01;70.00
40918;BME280;26644;50.248;19.032;2022-11-04T03:26:21;97401.16;;;9.07;70.27
40918;BME280;26644;50.248;19.032;2022-11-04T03:29:27;97407.00;;;9.01;70.25
40918;BME280;26644;50.248;19.032;2022-11-04T03:32:39;97382.81;;;8.84;70.19
40918;BME280;26644;50.248;19.032;2022-11-04T03:35:42;97397.22;;;8.94;70.65
40918;BME280;26644;50.248;19.032;2022-11-04T03:38:44;97387.09;;;8.95;70.28
40918;BME280;26644;50.248;19.032;2022-11-04T03:41:48;97388.38;;;9.03;70.46
40918;BME280;26644;50.248;19.032;2022-11-04T03:44:53;97388.94;;;9.00;69.87
40918;BME280;26644;50.248;19.032;2022-11-04T03:47:57;97381.31;;;8.97;70.22
40918;BME280;26644;50.248;19.032;2022-11-04T03:50:59;97378.31;;;8.93;70.17
40918;BME280;26644;50.248;19.032;2022-11-04T03:54:02;97377.56;;;8.87;69.89
40918;BME280;26644;50.248;19.032;2022-11-04T03:57:19;97374.69;;;8.78;70.03
40918;BME280;26644;50.248;19.032;2022-11-04T04:00:33;97373.44;;;8.71;70.22
40918;BME280;26644;50.248;19.032;2022-11-04T04:03:41;97375.38;;;8.65;70.54
40918;BME280;26644;50.248;19.032;2022-11-04T04:06:45;97359.63;;;8.57;70.35
40918;BME280;26644;50.248;19.032;2022-11-04T04:09:55;97355.84;;;8.53;70.74
40918;BME280;26644;50.248;19.032;2022-11-04T04:13:01;97366.00;;;8.52;70.50
40918;BME280;26644;50.248;19.032;2022-11-04T04:16:08;97355.91;;;8.48;70.79
40918;BME280;26644;50.248;19.032;2022-11-04T04:19:15;97314.72;;;8.15;70.90
40918;BME280;26644;50.248;19.032;2022-11-04T04:22:21;97342.75;;;8.25;70.94
40918;BME280;26644;50.248;19.032;2022-11-04T04:25:26;97347.06;;;8.32;71.06
40918;BME280;26644;50.248;19.032;2022-11-04T04:28:47;97353.66;;;8.31;71.26
40918;BME280;26644;50.248;19.032;2022-11-04T04:31:50;97346.56;;;8.30;71.44
40918;BME280;26644;50.248;19.032;2022-11-04T04:34:58;97345.72;;;8.29;71.19
40918;BME280;26644;50.248;19.032;2022-11-04T04:38:19;97320.50;;;8.13;71.48
40918;BME280;26644;50.248;19.032;2022-11-04T04:41:39;97343.88;;;8.24;71.49
40918;BME280;26644;50.248;19.032;2022-11-04T04:45:08;97339.56;;;8.18;71.48
40918;BME280;26644;50.248;19.032;2022-11-04T04:48:11;97335.84;;;8.09;71.58
40918;BME280;26644;50.248;19.032;2022-11-04T04:51:15;97320.13;;;7.95;71.73
40918;BME280;26644;50.248;19.032;2022-11-04T04:54:17;97335.44;;;7.97;72.06
40918;BME280;26644;50.248;19.032;2022-11-04T04:57:19;97297.13;;;7.72;72.60
40918;BME280;26644;50.248;19.032;2022-11-04T05:00:21;97323.25;;;7.84;72.52
40918;BME280;26644;50.248;19.032;2022-11-04T05:03:23;97317.56;;;7.80;72.80
40918;BME280;26644;50.248;19.032;2022-11-04T05:06:26;97324.19;;;7.74;73.00
40918;BME280;26644;50.248;19.032;2022-11-04T05:09:28;97299.44;;;7.60;73.29
40918;BME280;26644;50.248;19.032;2022-11-04T05:12:30;97305.75;;;7.60;73.51
40918;BME280;26644;50.248;19.032;2022-11-04T05:15:46;97317.19;;;7.62;73.53
40918;BME280;26644;50.248;19.032;2022-11-04T05:18:47;97309.28;;;7.61;73.65
40918;BME280;26644;50.248;19.032;2022-11-04T05:21:52;97310.97;;;7.57;73.48
40918;BME280;26644;50.248;19.032;2022-11-04T05:24:54;97309.03;;;7.57;73.64
40918;BME280;26644;50.248;19.032;2022-11-04T05:27:58;97304.66;;;7.56;73.72
40918;BME280;26644;50.248;19.032;2022-11-04T05:31:02;97284.53;;;7.47;73.84
40918;BME280;26644;50.248;19.032;2022-11-04T05:34:04;97294.03;;;7.55;73.66
40918;BME280;26644;50.248;19.032;2022-11-04T05:37:07;97294.88;;;7.55;73.83
40918;BME280;26644;50.248;19.032;2022-11-04T05:40:10;97264.41;;;7.38;73.84
40918;BME280;26644;50.248;19.032;2022-11-04T05:43:12;97279.81;;;7.58;74.20
40918;BME280;26644;50.248;19.032;2022-11-04T05:46:14;97289.63;;;7.59;73.97
40918;BME280;26644;50.248;19.032;2022-11-04T05:49:16;97281.97;;;7.61;73.96
40918;BME280;26644;50.248;19.032;2022-11-04T05:52:19;97289.06;;;7.62;73.90
40918;BME280;26644;50.248;19.032;2022-11-04T05:55:22;97293.13;;;7.65;73.67
40918;BME280;26644;50.248;19.032;2022-11-04T05:58:23;97293.88;;;7.70;73.69
40918;BME280;26644;50.248;19.032;2022-11-04T06:01:28;97264.53;;;7.57;73.83
40918;BME280;26644;50.248;19.032;2022-11-04T06:04:30;97291.63;;;7.77;73.94
40918;BME280;26644;50.248;19.032;2022-11-04T06:07:34;97283.72;;;7.76;73.52
40918;BME280;26644;50.248;19.032;2022-11-04T06:10:35;97300.25;;;7.90;73.84
40918;BME280;26644;50.248;19.032;2022-11-04T06:13:37;97213.63;;;7.42;73.31
40918;BME280;26644;50.248;19.032;2022-11-04T06:16:39;97300.97;;;8.01;73.77
40918;BME280;26644;50.248;19.032;2022-11-04T06:19:41;97279.94;;;7.96;73.58
40918;BME280;26644;50.248;19.032;2022-11-04T06:22:44;97289.38;;;8.09;73.32
40918;BME280;26644;50.248;19.032;2022-11-04T06:25:46;97296.13;;;8.17;73.23
40918;BME280;26644;50.248;19.032;2022-11-04T06:28:48;97291.25;;;8.14;73.45
40918;BME280;26644;50.248;19.032;2022-11-04T06:31:49;97288.44;;;8.19;72.94
40918;BME280;26644;50.248;19.032;2022-11-04T06:34:51;97307.41;;;8.34;72.92
40918;BME280;26644;50.248;19.032;2022-11-04T06:37:55;97303.91;;;8.28;72.47
40918;BME280;26644;50.248;19.032;2022-11-04T06:40:57;97312.81;;;8.39;72.13
40918;BME280;26644;50.248;19.032;2022-11-04T06:43:59;97301.06;;;8.39;72.33
40918;BME280;26644;50.248;19.032;2022-11-04T06:47:00;97316.22;;;8.50;72.04
40918;BME280;26644;50.248;19.032;2022-11-04T06:50:03;97313.72;;;8.54;71.80
40918;BME280;26644;50.248;19.032;2022-11-04T06:53:06;97322.66;;;8.59;71.56
40918;BME280;26644;50.248;19.032;2022-11-04T06:56:08;97325.09;;;8.61;71.23
40918;BME280;26644;50.248;19.032;2022-11-04T06:59:13;97314.69;;;8.63;71.14
40918;BME280;26644;50.248;19.032;2022-11-04T07:02:15;97301.06;;;8.58;70.91
40918;BME280;26644;50.248;19.032;2022-11-04T07:05:17;97321.63;;;8.74;70.93
40918;BME280;26644;50.248;19.032;2022-11-04T07:08:20;97319.66;;;8.80;70.81
40918;BME280;26644;50.248;19.032;2022-11-04T07:11:22;97307.38;;;8.77;70.81
40918;BME280;26644;50.248;19.032;2022-11-04T07:14:25;97311.66;;;8.84;70.53
40918;BME280;26644;50.248;19.032;2022-11-04T07:17:27;97323.75;;;9.02;70.11
40918;BME280;26644;50.248;19.032;2022-11-04T07:20:29;97317.41;;;9.06;70.13
40918;BME280;26644;50.248;19.032;2022-11-04T07:23:33;97314.72;;;9.20;69.73
40918;BME280;26644;50.248;19.032;2022-11-04T07:26:35;97309.66;;;9.27;69.24
40918;BME280;26644;50.248;19.032;2022-11-04T07:29:37;97310.59;;;9.37;68.91
40918;BME280;26644;50.248;19.032;2022-11-04T07:32:38;97305.56;;;9.44;68.68
40918;BME280;26644;50.248;19.032;2022-11-04T07:35:40;97312.09;;;9.48;68.48
40918;BME280;26644;50.248;19.032;2022-11-04T07:38:44;97311.16;;;9.53;67.81
40918;BME280;26644;50.248;19.032;2022-11-04T07:41:46;97307.25;;;9.59;67.94
40918;BME280;26644;50.248;19.032;2022-11-04T07:44:48;97306.25;;;9.69;67.49
40918;BME280;26644;50.248;19.032;2022-11-04T07:47:50;97301.44;;;10.21;68.42
40918;BME280;26644;50.248;19.032;2022-11-04T07:50:54;97276.69;;;10.77;66.53
40918;BME280;26644;50.248;19.032;2022-11-04T07:53:57;97279.44;;;11.14;65.86
40918;BME280;26644;50.248;19.032;2022-11-04T07:56:59;97300.75;;;11.31;64.25
40918;BME280;26644;50.248;19.032;2022-11-04T08:00:02;97307.72;;;11.14;64.22
40918;BME280;26644;50.248;19.032;2022-11-04T08:03:13;97304.50;;;10.98;64.10
40918;BME280;26644;50.248;19.032;2022-11-04T08:06:16;97294.00;;;10.77;64.13
40918;BME280;26644;50.248;19.032;2022-11-04T08:09:20;97301.13;;;10.65;64.31
40918;BME280;26644;50.248;19.032;2022-11-04T08:12:23;97283.75;;;10.41;64.70
40918;BME280;26644;50.248;19.032;2022-11-04T08:15:24;97299.78;;;10.48;65.09
40918;BME280;26644;50.248;19.032;2022-11-04T08:18:29;97274.31;;;10.34;65.47
40918;BME280;26644;50.248;19.032;2022-11-04T08:21:33;97291.06;;;10.46;65.40
40918;BME280;26644;50.248;19.032;2022-11-04T08:24:36;97287.22;;;10.47;65.58
40918;BME280;26644;50.248;19.032;2022-11-04T08:27:38;97269.75;;;10.43;65.97
40918;BME280;26644;50.248;19.032;2022-11-04T08:30:40;97280.59;;;10.62;65.83
40918;BME280;26644;50.248;19.032;2022-11-04T08:33:42;97273.25;;;10.71;65.90
40918;BME280;26644;50.248;19.032;2022-11-04T08:36:45;97264.81;;;10.68;65.82
40918;BME280;26644;50.248;19.032;2022-11-04T08:39:48;97265.72;;;10.77;65.80
40918;BME280;26644;50.248;19.032;2022-11-04T08:42:50;97268.16;;;10.78;65.61
40918;BME280;26644;50.248;19.032;2022-11-04T08:45:52;97262.97;;;10.77;65.57
40918;BME280;26644;50.248;19.032;2022-11-04T08:48:54;97241.13;;;10.72;65.88
40918;BME280;26644;50.248;19.032;2022-11-04T08:51:56;97247.50;;;10.81;65.62
40918;BME280;26644;50.248;19.032;2022-11-04T08:55:01;97239.09;;;10.77;65.63
40918;BME280;26644;50.248;19.032;2022-11-04T08:58:03;97243.00;;;10.85;65.63
40918;BME280;26644;50.248;19.032;2022-11-04T09:01:05;97244.16;;;10.84;66.06
40918;BME280;26644;50.248;19.032;2022-11-04T09:04:09;97244.84;;;10.90;65.70
40918;BME280;26644;50.248;19.032;2022-11-04T09:07:11;97241.16;;;10.94;65.80
40918;BME280;26644;50.248;19.032;2022-11-04T09:10:14;97240.03;;;10.95;65.78
40918;BME280;26644;50.248;19.032;2022-11-04T09:13:16;97221.69;;;10.82;65.42
40918;BME280;26644;50.248;19.032;2022-11-04T09:16:18;97236.81;;;10.93;65.58
40918;BME280;26644;50.248;19.032;2022-11-04T09:19:20;97237.09;;;10.92;65.63
40918;BME280;26644;50.248;19.032;2022-11-04T09:22:22;97235.38;;;10.96;65.87
40918;BME280;26644;50.248;19.032;2022-11-04T09:25:25;97225.19;;;10.97;65.86
40918;BME280;26644;50.248;19.032;2022-11-04T09:28:27;97236.25;;;11.05;65.79
40918;BME280;26644;50.248;19.032;2022-11-04T09:31:29;97232.44;;;11.15;65.91
40918;BME280;26644;50.248;19.032;2022-11-04T09:34:31;97224.84;;;11.21;65.96
40918;BME280;26644;50.248;19.032;2022-11-04T09:37:33;97214.88;;;11.25;65.94
40918;BME280;26644;50.248;19.032;2022-11-04T09:40:37;97226.13;;;11.46;65.66
40918;BME280;26644;50.248;19.032;2022-11-04T09:43:49;97205.13;;;11.41;65.42
40918;BME280;26644;50.248;19.032;2022-11-04T09:46:59;97196.09;;;11.50;65.84
40918;BME280;26644;50.248;19.032;2022-11-04T09:50:02;97211.88;;;11.75;65.56
40918;BME280;26644;50.248;19.032;2022-11-04T09:53:13;97223.91;;;11.88;65.22
40918;BME280;26644;50.248;19.032;2022-11-04T09:56:20;97218.03;;;12.04;65.10
40918;BME280;26644;50.248;19.032;2022-11-04T09:59:25;97214.50;;;12.12;65.01
40918;BME280;26644;50.248;19.032;2022-11-04T10:02:43;97217.28;;;12.21;64.49
40918;BME280;26644;50.248;19.032;2022-11-04T10:05:57;97226.19;;;12.35;64.42
40918;BME280;26644;50.248;19.032;2022-11-04T10:09:29;97215.69;;;12.37;63.93
40918;BME280;26644;50.248;19.032;2022-11-04T10:12:56;97221.34;;;12.41;64.18
40918;BME280;26644;50.248;19.032;2022-11-04T10:16:11;97163.00;;;12.04;63.88
40918;BME280;26644;50.248;19.032;2022-11-04T10:19:27;97211.31;;;12.45;64.04
40918;BME280;26644;50.248;19.032;2022-11-04T10:22:32;97192.84;;;12.45;64.24
40918;BME280;26644;50.248;19.032;2022-11-04T10:25:39;97202.44;;;12.74;64.20
40918;BME280;26644;50.248;19.032;2022-11-04T10:28:51;97206.81;;;12.93;63.92
40918;BME280;26644;50.248;19.032;2022-11-04T10:31:57;97200.94;;;13.12;63.76
40918;BME280;26644;50.248;19.032;2022-11-04T10:35:03;97197.72;;;13.36;63.82
40918;BME280;26644;50.248;19.032;2022-11-04T10:38:15;97183.88;;;13.45;62.92
40918;BME280;26644;50.248;19.032;2022-11-04T10:41:24;97200.25;;;13.59;61.99
40918;BME280;26644;50.248;19.032;2022-11-04T10:44:31;97186.63;;;13.45;61.86
40918;BME280;26644;50.248;19.032;2022-11-04T10:47:39;97118.44;;;13.16;61.55
40918;BME280;26644;50.248;19.032;2022-11-04T10:50:49;97185.50;;;13.55;61.69
40918;BME280;26644;50.248;19.032;2022-11-04T10:53:54;97168.78;;;13.51;61.45
40918;BME280;26644;50.248;19.032;2022-11-04T10:56:57;97201.00;;;13.68;61.51
40918;BME280;26644;50.248;19.032;2022-11-04T11:00:03;97199.56;;;13.62;61.18
40918;BME280;26644;50.248;19.032;2022-11-04T11:03:26;97202.47;;;13.66;61.24
40918;BME280;26644;50.248;19.032;2022-11-04T11:06:30;97198.09;;;13.73;61.88
40918;BME280;26644;50.248;19.032;2022-11-04T11:09:34;97169.34;;;13.74;61.84
40918;BME280;26644;50.248;19.032;2022-11-04T11:12:37;97176.38;;;13.93;61.92
40918;BME280;26644;50.248;19.032;2022-11-04T11:15:47;97179.53;;;14.13;61.99
40918;BME280;26644;50.248;19.032;2022-11-04T11:19:11;97157.00;;;14.10;61.83
40918;BME280;26644;50.248;19.032;2022-11-04T11:22:28;97183.66;;;14.27;61.79
40918;BME280;26644;50.248;19.032;2022-11-04T11:25:32;97174.13;;;14.25;61.51
40918;BME280;26644;50.248;19.032;2022-11-04T11:28:34;97180.78;;;14.24;62.04
40918;BME280;26644;50.248;19.032;2022-11-04T11:31:40;97175.59;;;14.22;62.13
40918;BME280;26644;50.248;19.032;2022-11-04T11:34:42;97176.94;;;14.16;61.99
40918;BME280;26644;50.248;19.032;2022-11-04T11:37:48;97169.00;;;14.15;62.11
40918;BME280;26644;50.248;19.032;2022-11-04T11:40:51;97154.09;;;14.07;62.43
40918;BME280;26644;50.248;19.032;2022-11-04T11:43:54;97162.13;;;14.21;62.51
40918;BME280;26644;50.248;19.032;2022-11-04T11:47:02;97150.28;;;14.20;62.49
40918;BME280;26644;50.248;19.032;2022-11-04T11:50:13;97120.94;;;14.16;62.52
40918;BME280;26644;50.248;19.032;2022-11-04T11:53:16;97142.75;;;14.30;62.17
40918;BME280;26644;50.248;19.032;2022-11-04T11:56:23;97136.53;;;14.33;62.30
40918;BME280;26644;50.248;19.032;2022-11-04T11:59:32;97129.97;;;14.25;62.26
40918;BME280;26644;50.248;19.032;2022-11-04T12:02:45;97127.94;;;14.34;62.34
40918;BME280;26644;50.248;19.032;2022-11-04T12:05:55;97130.66;;;14.43;62.61
40918;BME280;26644;50.248;19.032;2022-11-04T12:09:21;97128.09;;;14.59;62.39
40918;BME280;26644;50.248;19.032;2022-11-04T12:12:37;97128.38;;;14.66;62.49
40918;BME280;26644;50.248;19.032;2022-11-04T12:15:53;97115.59;;;14.74;62.14
40918;BME280;26644;50.248;19.032;2022-11-04T12:19:23;97124.97;;;14.82;61.80
40918;BME280;26644;50.248;19.032;2022-11-04T12:22:37;97070.84;;;14.47;61.90
40918;BME280;26644;50.248;19.032;2022-11-04T12:25:43;97127.78;;;14.94;62.26
40918;BME280;26644;50.248;19.032;2022-11-04T12:29:02;97132.75;;;15.01;61.70
40918;BME280;26644;50.248;19.032;2022-11-04T12:32:13;97128.81;;;14.89;61.66
40918;BME280;26644;50.248;19.032;2022-11-04T12:35:31;97117.78;;;14.68;61.40
40918;BME280;26644;50.248;19.032;2022-11-04T12:38:57;97133.22;;;14.69;61.71
40918;BME280;26644;50.248;19.032;2022-11-04T12:42:11;97133.63;;;14.59;61.83
40918;BME280;26644;50.248;19.032;2022-11-04T12:45:24;97115.09;;;14.38;62.19
40918;BME280;26644;50.248;19.032;2022-11-04T12:48:54;97118.16;;;14.37;62.39
40918;BME280;26644;50.248;19.032;2022-11-04T12:52:09;97106.72;;;14.26;62.59
40918;BME280;26644;50.248;19.032;2022-11-04T12:55:24;97117.09;;;14.29;62.51
40918;BME280;26644;50.248;19.032;2022-11-04T12:58:41;97117.91;;;14.30;62.75
40918;BME280;26644;50.248;19.032;2022-11-04T13:01:48;97119.38;;;14.27;62.50
40918;BME280;26644;50.248;19.032;2022-11-04T13:04:59;97110.69;;;14.16;62.78
40918;BME280;26644;50.248;19.032;2022-11-04T13:08:11;97115.28;;;14.12;62.85
40918;BME280;26644;50.248;19.032;2022-11-04T13:11:19;97114.78;;;14.10;63.37
40918;BME280;26644;50.248;19.032;2022-11-04T13:14:25;97090.41;;;13.91;63.12
40918;BME280;26644;50.248;19.032;2022-11-04T13:17:32;97123.41;;;14.08;63.07
40918;BME280;26644;50.248;19.032;2022-11-04T13:20:40;97118.50;;;14.14;62.99
40918;BME280;26644;50.248;19.032;2022-11-04T13:23:50;97122.25;;;14.09;62.79
40918;BME280;26644;50.248;19.032;2022-11-04T13:26:52;97116.44;;;14.02;62.66
40918;BME280;26644;50.248;19.032;2022-11-04T13:30:03;97120.91;;;13.94;62.62
40918;BME280;26644;50.248;19.032;2022-11-04T13:33:12;97114.41;;;13.90;62.72
40918;BME280;26644;50.248;19.032;2022-11-04T13:36:26;97113.81;;;13.85;62.94
40918;BME280;26644;50.248;19.032;2022-11-04T13:39:35;97080.19;;;13.61;63.19
40918;BME280;26644;50.248;19.032;2022-11-04T13:43:01;97104.16;;;13.70;62.90
40918;BME280;26644;50.248;19.032;2022-11-04T13:46:24;97113.03;;;13.75;63.43
40918;BME280;26644;50.248;19.032;2022-11-04T13:49:31;97125.69;;;13.76;63.17
40918;BME280;26644;50.248;19.032;2022-11-04T13:52:46;97122.78;;;13.73;63.13
40918;BME280;26644;50.248;19.032;2022-11-04T13:55:50;97128.63;;;13.71;63.38
40918;BME280;26644;50.248;19.032;2022-11-04T13:58:54;97122.66;;;13.69;63.34
40918;BME280;26644;50.248;19.032;2022-11-04T14:02:37;97117.78;;;13.66;63.32
40918;BME280;26644;50.248;19.032;2022-11-04T14:05:45;97121.22;;;13.63;63.54
40918;BME280;26644;50.248;19.032;2022-11-04T14:12:33;97126.59;;;13.59;63.53
40918;BME280;26644;50.248;19.032;2022-11-04T14:15:58;97133.91;;;13.55;64.16
40918;BME280;26644;50.248;19.032;2022-11-04T14:19:44;97132.28;;;13.54;64.06
40918;BME280;26644;50.248;19.032;2022-11-04T14:22:49;97126.44;;;13.56;64.33
40918;BME280;26644;50.248;19.032;2022-11-04T14:25:59;97127.59;;;13.55;64.31
40918;BME280;26644;50.248;19.032;2022-11-04T14:29:05;97056.53;;;13.13;64.40
40918;BME280;26644;50.248;19.032;2022-11-04T14:32:10;97123.06;;;13.50;64.75
40918;BME280;26644;50.248;19.032;2022-11-04T14:35:16;97113.66;;;13.51;64.79
40918;BME280;26644;50.248;19.032;2022-11-04T14:38:24;97110.28;;;13.46;64.95
40918;BME280;26644;50.248;19.032;2022-11-04T14:41:55;97120.81;;;13.43;64.93
40918;BME280;26644;50.248;19.032;2022-11-04T14:44:59;97127.13;;;13.44;64.95
40918;BME280;26644;50.248;19.032;2022-11-04T14:48:10;97135.72;;;13.42;64.99
40918;BME280;26644;50.248;19.032;2022-11-04T14:51:20;97122.34;;;13.23;65.41
40918;BME280;26644;50.248;19.032;2022-11-04T14:54:25;97146.28;;;13.40;65.38
40918;BME280;26644;50.248;19.032;2022-11-04T14:57:36;97146.28;;;13.40;65.36
40918;BME280;26644;50.248;19.032;2022-11-04T15:00:50;97115.19;;;13.22;65.47
40918;BME280;26644;50.248;19.032;2022-11-04T15:03:53;97125.09;;;13.32;65.74
40918;BME280;26644;50.248;19.032;2022-11-04T15:06:57;97139.34;;;13.34;65.69
40918;BME280;26644;50.248;19.032;2022-11-04T15:10:00;97129.78;;;13.23;66.00
40918;BME280;26644;50.248;19.032;2022-11-04T15:13:02;97134.16;;;13.24;65.98
40918;BME280;26644;50.248;19.032;2022-11-04T15:16:10;97134.81;;;13.21;66.15
40918;BME280;26644;50.248;19.032;2022-11-04T15:19:23;97124.75;;;13.16;66.49
40918;BME280;26644;50.248;19.032;2022-11-04T15:22:28;97123.00;;;13.11;66.56
40918;BME280;26644;50.248;19.032;2022-11-04T15:25:30;97111.47;;;13.09;66.60
40918;BME280;26644;50.248;19.032;2022-11-04T15:28:34;97088.03;;;12.94;66.76
40918;BME280;26644;50.248;19.032;2022-11-04T15:31:50;97092.69;;;13.03;66.58
40918;BME280;26644;50.248;19.032;2022-11-04T15:34:53;97106.28;;;13.17;66.77
40918;BME280;26644;50.248;19.032;2022-11-04T15:37:58;97072.78;;;13.06;66.54
40918;BME280;26644;50.248;19.032;2022-11-04T15:41:01;97091.03;;;13.19;66.43
40918;BME280;26644;50.248;19.032;2022-11-04T15:44:20;97084.41;;;13.20;66.31
40918;BME280;26644;50.248;19.032;2022-11-04T15:47:26;97091.03;;;13.19;66.40
40918;BME280;26644;50.248;19.032;2022-11-04T15:50:29;97097.19;;;13.16;66.35
40918;BME280;26644;50.248;19.032;2022-11-04T15:53:32;97075.53;;;13.06;66.51
40918;BME280;26644;50.248;19.032;2022-11-04T15:56:39;97071.94;;;13.14;66.55
40918;BME280;26644;50.248;19.032;2022-11-04T15:59:45;97021.81;;;12.82;66.41
40918;BME280;26644;50.248;19.032;2022-11-04T16:02:53;97071.66;;;13.07;66.42
40918;BME280;26644;50.248;19.032;2022-11-04T16:06:00;97065.97;;;13.03;66.79
40918;BME280;26644;50.248;19.032;2022-11-04T16:09:17;97063.06;;;13.00;66.52
40918;BME280;26644;50.248;19.032;2022-11-04T16:12:27;97058.69;;;12.99;66.82
40918;BME280;26644;50.248;19.032;2022-11-04T16:15:35;97061.78;;;12.97;66.58
40918;BME280;26644;50.248;19.032;2022-11-04T16:18:41;97073.78;;;12.92;66.33
40918;BME280;26644;50.248;19.032;2022-11-04T16:21:45;97075.09;;;12.86;66.34
40918;BME280;26644;50.248;19.032;2022-11-04T16:24:48;97071.84;;;12.84;66.50
40918;BME280;26644;50.248;19.032;2022-11-04T16:27:51;97036.91;;;12.67;66.32